F/V Eema 2 — FL9603 — position and weather

sailwx.info

Track history (hours):
 
Tides and Currents Weather Stations Pressure Air Temp Water Temp Dewpoint Dewpoint Depression Visibility Wind Speed Wind Dir Waves Ship Positions

F/V Eema 2

Last reported at 2015-Apr-17 14:27 UTC. Time now 2015-May-06 11:28 UTC.
Position N 43°23' W 001°40'.
Warning: this ship's position is 18 days out of date.

Length 10 m.

Type: Fishing. MMSI: 22700000.

Date/timePositionNaut miles runAvg speedWind from/ knotsBaromVisibWave heightAir tempDewpointWater temp
2015-Apr-17 14:27N 43°23' W 001°40'2 2.1
2015-Apr-17 13:33N 43°25' W 001°40'16 0.6
2015-Apr-16 11:21N 43°41' W 001°37'10 1.2
2015-Apr-16 03:13N 43°31' W 001°40'6 8.6
2015-Apr-16 02:33N 43°26' W 001°40'3 0.2
2015-Apr-15 14:27N 43°23' W 001°40'2 2.7
2015-Apr-15 13:33N 43°26' W 001°40'13 2.6
2015-Apr-15 08:25N 43°39' W 001°38'1 0.8
2015-Apr-15 07:29N 43°39' W 001°37'0 0.4
2015-Apr-15 06:27N 43°40' W 001°37'0 0.5
2015-Apr-15 05:31N 43°40' W 001°37'0 0.4
2015-Apr-15 04:31N 43°40' W 001°37'7 5.7
2015-Apr-15 03:16N 43°33' W 001°39'6 8.5
2015-Apr-15 02:32N 43°26' W 001°40'3 0.3
2015-Apr-14 14:33N 43°23' W 001°40'0 0.5
2015-Apr-14 13:33N 43°23' W 001°40'9 8.9
2015-Apr-14 12:33N 43°32' W 001°37'7 1.3
2015-Apr-14 07:18N 43°39' W 001°38'0 0.0
2015-Apr-14 04:17N 43°39' W 001°38'1 1.5
2015-Apr-14 03:24N 43°40' W 001°36'0 0.1
2015-Apr-14 02:15N 43°40' W 001°37'0 0.0
2015-Apr-13 16:12N 43°40' W 001°37'1 1.8
2015-Apr-13 15:29N 43°38' W 001°38'0 0.0
2015-Apr-13 08:32N 43°39' W 001°38'6 1.2
2015-Apr-13 03:11N 43°32' W 001°39'5 8.6
2015-Apr-13 02:33N 43°27' W 001°40'4 0.3
2015-Apr-12 14:27N 43°23' W 001°40'1 1.0
2015-Apr-12 13:32N 43°24' W 001°41'9 8.9
2015-Apr-12 12:33N 43°33' W 001°40'0 0.1
2015-Apr-12 03:18N 43°33' W 001°39'6 8.6
2015-Apr-12 02:33N 43°26' W 001°40'3 0.3
2015-Apr-11 14:11N 43°23' W 001°40'3 4.0
2015-Apr-11 13:33N 43°26' W 001°40'7 0.7
2015-Apr-11 03:23N 43°32' W 001°39'7 8.3
2015-Apr-11 02:33N 43°26' W 001°40'2 0.2
2015-Apr-10 14:11N 43°23' W 001°40'0 0.3
2015-Apr-10 13:23N 43°23' W 001°40'7 7.6
2015-Apr-10 12:31N 43°30' W 001°41'3 0.4
2015-Apr-10 03:18N 43°33' W 001°39'7 8.6
2015-Apr-10 02:32N 43°26' W 001°40'3 0.6
2015-Apr-09 21:14N 43°23' W 001°40'0 0.0
2015-Apr-09 17:20N 43°23' W 001°40'0 0.0
2015-Apr-09 16:20N 43°23' W 001°40'0 0.1
2015-Apr-09 15:14N 43°23' W 001°40'3 1.8
2015-Apr-09 13:33N 43°26' W 001°40'15 4.4
2015-Apr-09 10:06N 43°41' W 001°37'3 4.8
2015-Apr-09 09:33N 43°39' W 001°38'0 0.2
2015-Apr-09 08:32N 43°39' W 001°38'0 0.3
2015-Apr-09 07:33N 43°39' W 001°37'6 1.4
2015-Apr-09 03:28N 43°33' W 001°39'8 8.5
2015-Apr-09 02:33N 43°25' W 001°40'2 0.2
2015-Apr-08 14:12N 43°23' W 001°40'0 0.0
2015-Apr-08 13:33N 43°23' W 001°40'8 7.7
2015-Apr-08 12:33N 43°31' W 001°38'3 0.3
2015-Apr-08 03:18N 43°33' W 001°39'7 8.8
2015-Apr-08 02:33N 43°27' W 001°40'  
Track history (hours):
 
Tides and Currents Weather Stations Pressure Air Temp Water Temp Dewpoint Dewpoint Depression Visibility Wind Speed Wind Dir Waves Ship Positions

F/V Eema 2

Last reported at 2015-Apr-17 14:27 UTC. Time now 2015-May-06 11:28 UTC.
Position N 43°23' W 001°40'.
Warning: this ship's position is 18 days out of date.

Length 10 m.

Type: Fishing. MMSI: 22700000.

Date/timePositionNaut miles runAvg speedWind from/ knotsBaromVisibWave heightAir tempDewpointWater temp
2015-Apr-17 14:27N 43°23' W 001°40'2 2.1
2015-Apr-17 13:33N 43°25' W 001°40'16 0.6
2015-Apr-16 11:21N 43°41' W 001°37'10 1.2
2015-Apr-16 03:13N 43°31' W 001°40'6 8.6
2015-Apr-16 02:33N 43°26' W 001°40'3 0.2
2015-Apr-15 14:27N 43°23' W 001°40'2 2.7
2015-Apr-15 13:33N 43°26' W 001°40'13 2.6
2015-Apr-15 08:25N 43°39' W 001°38'1 0.8
2015-Apr-15 07:29N 43°39' W 001°37'0 0.4
2015-Apr-15 06:27N 43°40' W 001°37'0 0.5
2015-Apr-15 05:31N 43°40' W 001°37'0 0.4
2015-Apr-15 04:31N 43°40' W 001°37'7 5.7
2015-Apr-15 03:16N 43°33' W 001°39'6 8.5
2015-Apr-15 02:32N 43°26' W 001°40'3 0.3
2015-Apr-14 14:33N 43°23' W 001°40'0 0.5
2015-Apr-14 13:33N 43°23' W 001°40'9 8.9
2015-Apr-14 12:33N 43°32' W 001°37'7 1.3
2015-Apr-14 07:18N 43°39' W 001°38'0 0.0
2015-Apr-14 04:17N 43°39' W 001°38'1 1.5
2015-Apr-14 03:24N 43°40' W 001°36'0 0.1
2015-Apr-14 02:15N 43°40' W 001°37'0 0.0
2015-Apr-13 16:12N 43°40' W 001°37'1 1.8
2015-Apr-13 15:29N 43°38' W 001°38'0 0.0
2015-Apr-13 08:32N 43°39' W 001°38'6 1.2
2015-Apr-13 03:11N 43°32' W 001°39'5 8.6
2015-Apr-13 02:33N 43°27' W 001°40'4 0.3
2015-Apr-12 14:27N 43°23' W 001°40'1 1.0
2015-Apr-12 13:32N 43°24' W 001°41'9 8.9
2015-Apr-12 12:33N 43°33' W 001°40'0 0.1
2015-Apr-12 03:18N 43°33' W 001°39'6 8.6
2015-Apr-12 02:33N 43°26' W 001°40'3 0.3
2015-Apr-11 14:11N 43°23' W 001°40'3 4.0
2015-Apr-11 13:33N 43°26' W 001°40'7 0.7
2015-Apr-11 03:23N 43°32' W 001°39'7 8.3
2015-Apr-11 02:33N 43°26' W 001°40'2 0.2
2015-Apr-10 14:11N 43°23' W 001°40'0 0.3
2015-Apr-10 13:23N 43°23' W 001°40'7 7.6
2015-Apr-10 12:31N 43°30' W 001°41'3 0.4
2015-Apr-10 03:18N 43°33' W 001°39'7 8.6
2015-Apr-10 02:32N 43°26' W 001°40'3 0.6
2015-Apr-09 21:14N 43°23' W 001°40'0 0.0
2015-Apr-09 17:20N 43°23' W 001°40'0 0.0
2015-Apr-09 16:20N 43°23' W 001°40'0 0.1
2015-Apr-09 15:14N 43°23' W 001°40'3 1.8
2015-Apr-09 13:33N 43°26' W 001°40'15 4.4
2015-Apr-09 10:06N 43°41' W 001°37'3 4.8
2015-Apr-09 09:33N 43°39' W 001°38'0 0.2
2015-Apr-09 08:32N 43°39' W 001°38'0 0.3
2015-Apr-09 07:33N 43°39' W 001°37'6 1.4
2015-Apr-09 03:28N 43°33' W 001°39'8 8.5
2015-Apr-09 02:33N 43°25' W 001°40'2 0.2
2015-Apr-08 14:12N 43°23' W 001°40'0 0.0
2015-Apr-08 13:33N 43°23' W 001°40'8 7.7
2015-Apr-08 12:33N 43°31' W 001°38'3 0.3
2015-Apr-08 03:18N 43°33' W 001°39'7 8.8
2015-Apr-08 02:33N 43°27' W 001°40'  

Dump ship's entire track history